Los Angeles, CA (90016)

6:21 AM PDT on August 30, 2016 (GMT -0700)
CBS Radio, Venice and Fairfax | | Change Station

Elev 97 ft 34.04 °N, 118.37 °W | Updated 1 minute ago

Scattered Clouds
Scattered Clouds
67.1 °F
Feels Like 67.1 °F
N
0.0
Wind Variable Wind from West
Gusts 0.0 mph

Today
High -- | Low -- °F
--% Chance of Precip.
Yesterday
High -- | Low -- °F
Precip. -- in
Pressure 29.87 in
Visibility 10.0 miles
Clouds Scattered Clouds 700 ft
Dew Point 64 °F
Humidity 90%
Rainfall 0.00 in
Snow Depth Not available.
6:26 AM 7:21 PM
Waning Crescent, 4% visible
METAR KSMO 301251Z AUTO 02003KT 10SM SCT007 19/16 A2987 RMK AO2 SLP113 T01890161 $
Pressure 29.87 in
Visibility 10.0 miles
Clouds Scattered Clouds 700 ft
Dew Point 64 °F
Humidity 90%
Rainfall 0.00 in
Snow Depth Not available.
6:26 AM 7:21 PM
Waning Crescent, 4% visible
METAR KSMO 301251Z AUTO 02003KT 10SM SCT007 19/16 A2987 RMK AO2 SLP113 T01890161 $

10-Day Weather Forecast

Almanac

Astronomy

Aug. 30, 2016 Rise Set
Actual Time
Civil Twilight
Nautical Twilight
Astronomical Twilight
Moon
Length of Visible Light
Length of Day
Tomorrow will be .
, % of the Moon is Illuminated

Today's Extremes

State Highs State Lows

Community

WunderPhotos

Upload Photos

1,935,831 photos uploaded!

WunderBlog® & News

Nearby

Air Quality

  Air Quality AQ Index Pollutant
Not available.

Snow Depth

Station Depth Elevation

Earthquake Activity

City Distance Mag. Time & Date
Minimum magnitude displayed is 2.5.

Coastal Water Temperatures

Place Temperature

Stations

Nearby Weather Stations

Station Location Temp. Windchill Dew Point Humidity Wind Precip. Elev Updated Type
                   

Watches & Warnings

There are currently no watches in effect.